sensor_id;sensor_type;location;lat;lon;timestamp;P1;durP1;ratioP1;P2;durP2;ratioP2
59028;SDS011;45919;51.420;5.454;2022-07-29T00:00:08;6.45;;;3.65;;
59028;SDS011;45919;51.420;5.454;2022-07-29T00:01:14;6.70;;;3.50;;
59028;SDS011;45919;51.420;5.454;2022-07-29T00:02:16;7.00;;;3.40;;
59028;SDS011;45919;51.420;5.454;2022-07-29T00:03:18;6.50;;;3.33;;
59028;SDS011;45919;51.420;5.454;2022-07-29T00:04:19;7.38;;;3.40;;
59028;SDS011;45919;51.420;5.454;2022-07-29T00:05:21;5.28;;;3.67;;
59028;SDS011;45919;51.420;5.454;2022-07-29T00:06:23;5.53;;;3.20;;
59028;SDS011;45919;51.420;5.454;2022-07-29T00:07:24;5.03;;;3.88;;
59028;SDS011;45919;51.420;5.454;2022-07-29T00:08:26;7.88;;;3.47;;
59028;SDS011;45919;51.420;5.454;2022-07-29T00:09:28;6.72;;;3.40;;
59028;SDS011;45919;51.420;5.454;2022-07-29T00:10:29;5.15;;;3.13;;
59028;SDS011;45919;51.420;5.454;2022-07-29T00:11:31;8.13;;;3.80;;
59028;SDS011;45919;51.420;5.454;2022-07-29T00:12:33;8.02;;;3.53;;
59028;SDS011;45919;51.420;5.454;2022-07-29T00:13:34;6.32;;;3.22;;
59028;SDS011;45919;51.420;5.454;2022-07-29T00:14:36;8.32;;;3.58;;
59028;SDS011;45919;51.420;5.454;2022-07-29T00:15:38;5.95;;;3.60;;
59028;SDS011;45919;51.420;5.454;2022-07-29T00:16:39;7.25;;;3.78;;
59028;SDS011;45919;51.420;5.454;2022-07-29T00:17:41;4.88;;;3.35;;
59028;SDS011;45919;51.420;5.454;2022-07-29T00:18:43;5.35;;;3.60;;
59028;SDS011;45919;51.420;5.454;2022-07-29T00:19:44;9.18;;;3.63;;
59028;SDS011;45919;51.420;5.454;2022-07-29T00:20:46;5.80;;;3.40;;
59028;SDS011;45919;51.420;5.454;2022-07-29T00:21:47;5.85;;;3.55;;
59028;SDS011;45919;51.420;5.454;2022-07-29T00:22:49;8.43;;;3.47;;
59028;SDS011;45919;51.420;5.454;2022-07-29T00:23:51;7.45;;;3.55;;
59028;SDS011;45919;51.420;5.454;2022-07-29T00:24:52;5.95;;;3.70;;
59028;SDS011;45919;51.420;5.454;2022-07-29T00:25:54;7.18;;;4.05;;
59028;SDS011;45919;51.420;5.454;2022-07-29T00:26:55;6.10;;;3.40;;
59028;SDS011;45919;51.420;5.454;2022-07-29T00:27:57;5.78;;;3.47;;
59028;SDS011;45919;51.420;5.454;2022-07-29T00:28:59;6.53;;;3.15;;
59028;SDS011;45919;51.420;5.454;2022-07-29T00:30:22;8.50;;;3.92;;
59028;SDS011;45919;51.420;5.454;2022-07-29T00:31:23;5.60;;;3.40;;
59028;SDS011;45919;51.420;5.454;2022-07-29T00:32:25;7.32;;;3.75;;
59028;SDS011;45919;51.420;5.454;2022-07-29T00:33:27;6.72;;;3.10;;
59028;SDS011;45919;51.420;5.454;2022-07-29T00:34:29;7.18;;;3.10;;
59028;SDS011;45919;51.420;5.454;2022-07-29T00:35:50;7.47;;;3.15;;
59028;SDS011;45919;51.420;5.454;2022-07-29T00:36:51;6.97;;;3.13;;
59028;SDS011;45919;51.420;5.454;2022-07-29T00:37:53;5.28;;;3.25;;
59028;SDS011;45919;51.420;5.454;2022-07-29T00:38:55;6.70;;;3.70;;
59028;SDS011;45919;51.420;5.454;2022-07-29T00:39:56;7.32;;;3.88;;
59028;SDS011;45919;51.420;5.454;2022-07-29T00:40:58;9.63;;;3.83;;
59028;SDS011;45919;51.420;5.454;2022-07-29T00:42:01;8.75;;;4.57;;
59028;SDS011;45919;51.420;5.454;2022-07-29T00:43:04;9.35;;;4.38;;
59028;SDS011;45919;51.420;5.454;2022-07-29T00:44:07;11.23;;;4.72;;
59028;SDS011;45919;51.420;5.454;2022-07-29T00:45:08;10.55;;;5.00;;
59028;SDS011;45919;51.420;5.454;2022-07-29T00:46:10;12.00;;;5.22;;
59028;SDS011;45919;51.420;5.454;2022-07-29T00:47:12;11.65;;;4.93;;
59028;SDS011;45919;51.420;5.454;2022-07-29T00:48:14;10.82;;;5.00;;
59028;SDS011;45919;51.420;5.454;2022-07-29T00:49:16;11.05;;;5.18;;
59028;SDS011;45919;51.420;5.454;2022-07-29T00:50:17;9.93;;;5.05;;
59028;SDS011;45919;51.420;5.454;2022-07-29T00:51:19;11.18;;;5.05;;
59028;SDS011;45919;51.420;5.454;2022-07-29T00:52:21;9.20;;;5.20;;
59028;SDS011;45919;51.420;5.454;2022-07-29T00:53:23;11.32;;;5.15;;
59028;SDS011;45919;51.420;5.454;2022-07-29T00:54:24;8.57;;;4.97;;
59028;SDS011;45919;51.420;5.454;2022-07-29T00:55:28;10.55;;;4.68;;
59028;SDS011;45919;51.420;5.454;2022-07-29T00:56:30;11.77;;;5.50;;
59028;SDS011;45919;51.420;5.454;2022-07-29T00:57:34;6.93;;;4.72;;
59028;SDS011;45919;51.420;5.454;2022-07-29T00:58:35;8.20;;;4.55;;
59028;SDS011;45919;51.420;5.454;2022-07-29T00:59:37;11.48;;;4.90;;
59028;SDS011;45919;51.420;5.454;2022-07-29T01:00:39;7.32;;;4.75;;
59028;SDS011;45919;51.420;5.454;2022-07-29T01:01:41;11.23;;;5.07;;
59028;SDS011;45919;51.420;5.454;2022-07-29T01:02:44;9.75;;;5.28;;
59028;SDS011;45919;51.420;5.454;2022-07-29T01:03:46;10.18;;;5.35;;
59028;SDS011;45919;51.420;5.454;2022-07-29T01:04:47;8.70;;;5.00;;
59028;SDS011;45919;51.420;5.454;2022-07-29T01:05:50;8.00;;;4.82;;
59028;SDS011;45919;51.420;5.454;2022-07-29T01:06:52;10.70;;;5.60;;
59028;SDS011;45919;51.420;5.454;2022-07-29T01:07:55;7.97;;;5.78;;
59028;SDS011;45919;51.420;5.454;2022-07-29T01:08:59;8.82;;;6.00;;
59028;SDS011;45919;51.420;5.454;2022-07-29T01:10:04;9.50;;;5.30;;
59028;SDS011;45919;51.420;5.454;2022-07-29T01:11:08;10.50;;;5.93;;
59028;SDS011;45919;51.420;5.454;2022-07-29T01:12:10;9.18;;;5.85;;
59028;SDS011;45919;51.420;5.454;2022-07-29T01:13:14;9.18;;;5.72;;
59028;SDS011;45919;51.420;5.454;2022-07-29T01:14:17;10.75;;;6.03;;
59028;SDS011;45919;51.420;5.454;2022-07-29T01:15:19;9.10;;;5.80;;
59028;SDS011;45919;51.420;5.454;2022-07-29T01:16:23;9.45;;;5.78;;
59028;SDS011;45919;51.420;5.454;2022-07-29T01:18:46;9.95;;;5.70;;
59028;SDS011;45919;51.420;5.454;2022-07-29T01:19:52;10.45;;;6.10;;
59028;SDS011;45919;51.420;5.454;2022-07-29T01:22:49;11.27;;;6.60;;
59028;SDS011;45919;51.420;5.454;2022-07-29T01:29:45;9.63;;;6.40;;
59028;SDS011;45919;51.420;5.454;2022-07-29T01:30:53;13.27;;;6.28;;
59028;SDS011;45919;51.420;5.454;2022-07-29T01:31:57;13.65;;;6.85;;
59028;SDS011;45919;51.420;5.454;2022-07-29T01:33:04;13.43;;;6.55;;
59028;SDS011;45919;51.420;5.454;2022-07-29T01:34:11;10.82;;;6.55;;
59028;SDS011;45919;51.420;5.454;2022-07-29T01:35:26;10.18;;;6.70;;
59028;SDS011;45919;51.420;5.454;2022-07-29T01:36:39;13.93;;;6.80;;
59028;SDS011;45919;51.420;5.454;2022-07-29T01:39:18;10.77;;;6.32;;
59028;SDS011;45919;51.420;5.454;2022-07-29T01:41:55;9.43;;;6.15;;
59028;SDS011;45919;51.420;5.454;2022-07-29T01:43:03;10.98;;;7.00;;
59028;SDS011;45919;51.420;5.454;2022-07-29T01:44:22;9.40;;;6.40;;
59028;SDS011;45919;51.420;5.454;2022-07-29T01:45:42;13.85;;;6.38;;
59028;SDS011;45919;51.420;5.454;2022-07-29T01:46:52;9.57;;;6.15;;
59028;SDS011;45919;51.420;5.454;2022-07-29T01:48:15;9.80;;;6.93;;
59028;SDS011;45919;51.420;5.454;2022-07-29T01:49:25;9.90;;;6.20;;
59028;SDS011;45919;51.420;5.454;2022-07-29T01:50:36;11.48;;;6.35;;
59028;SDS011;45919;51.420;5.454;2022-07-29T01:52:07;8.93;;;5.88;;
59028;SDS011;45919;51.420;5.454;2022-07-29T01:53:21;10.77;;;6.43;;
59028;SDS011;45919;51.420;5.454;2022-07-29T01:54:43;11.27;;;7.45;;
59028;SDS011;45919;51.420;5.454;2022-07-29T01:55:50;9.43;;;6.65;;
59028;SDS011;45919;51.420;5.454;2022-07-29T01:56:53;7.75;;;6.32;;
59028;SDS011;45919;51.420;5.454;2022-07-29T01:57:58;10.65;;;6.78;;
59028;SDS011;45919;51.420;5.454;2022-07-29T01:59:02;11.85;;;6.70;;
59028;SDS011;45919;51.420;5.454;2022-07-29T02:00:08;12.43;;;6.50;;
59028;SDS011;45919;51.420;5.454;2022-07-29T02:01:10;8.90;;;7.05;;
59028;SDS011;45919;51.420;5.454;2022-07-29T02:02:15;10.82;;;7.18;;
59028;SDS011;45919;51.420;5.454;2022-07-29T02:03:17;11.50;;;7.15;;
59028;SDS011;45919;51.420;5.454;2022-07-29T02:04:20;10.05;;;6.60;;
59028;SDS011;45919;51.420;5.454;2022-07-29T02:05:22;10.63;;;6.55;;
59028;SDS011;45919;51.420;5.454;2022-07-29T02:06:28;11.98;;;7.30;;
59028;SDS011;45919;51.420;5.454;2022-07-29T02:07:33;10.00;;;6.95;;
59028;SDS011;45919;51.420;5.454;2022-07-29T02:08:36;12.38;;;6.82;;
59028;SDS011;45919;51.420;5.454;2022-07-29T02:09:40;10.00;;;6.82;;
59028;SDS011;45919;51.420;5.454;2022-07-29T02:10:43;9.73;;;7.00;;
59028;SDS011;45919;51.420;5.454;2022-07-29T02:11:48;12.35;;;7.00;;
59028;SDS011;45919;51.420;5.454;2022-07-29T02:12:54;12.85;;;7.68;;
59028;SDS011;45919;51.420;5.454;2022-07-29T02:13:57;11.50;;;7.38;;
59028;SDS011;45919;51.420;5.454;2022-07-29T02:15:01;14.15;;;7.45;;
59028;SDS011;45919;51.420;5.454;2022-07-29T02:16:05;10.95;;;6.80;;
59028;SDS011;45919;51.420;5.454;2022-07-29T02:17:08;11.80;;;7.13;;
59028;SDS011;45919;51.420;5.454;2022-07-29T02:18:17;12.73;;;7.65;;
59028;SDS011;45919;51.420;5.454;2022-07-29T02:19:21;10.85;;;7.40;;
59028;SDS011;45919;51.420;5.454;2022-07-29T02:20:25;14.80;;;7.78;;
59028;SDS011;45919;51.420;5.454;2022-07-29T02:21:29;9.32;;;7.45;;
59028;SDS011;45919;51.420;5.454;2022-07-29T02:22:33;11.10;;;7.00;;
59028;SDS011;45919;51.420;5.454;2022-07-29T02:23:38;9.93;;;6.97;;
59028;SDS011;45919;51.420;5.454;2022-07-29T02:24:40;11.70;;;7.28;;
59028;SDS011;45919;51.420;5.454;2022-07-29T02:25:43;12.02;;;7.70;;
59028;SDS011;45919;51.420;5.454;2022-07-29T02:26:48;10.50;;;7.05;;
59028;SDS011;45919;51.420;5.454;2022-07-29T02:27:51;10.15;;;7.30;;
59028;SDS011;45919;51.420;5.454;2022-07-29T02:28:54;9.15;;;6.53;;
59028;SDS011;45919;51.420;5.454;2022-07-29T02:29:57;9.57;;;6.80;;
59028;SDS011;45919;51.420;5.454;2022-07-29T02:31:02;9.57;;;6.78;;
59028;SDS011;45919;51.420;5.454;2022-07-29T02:32:05;10.50;;;6.90;;
59028;SDS011;45919;51.420;5.454;2022-07-29T02:33:12;10.10;;;6.75;;
59028;SDS011;45919;51.420;5.454;2022-07-29T02:34:15;10.88;;;7.15;;
59028;SDS011;45919;51.420;5.454;2022-07-29T02:35:19;13.23;;;7.55;;
59028;SDS011;45919;51.420;5.454;2022-07-29T02:36:23;10.82;;;7.13;;
59028;SDS011;45919;51.420;5.454;2022-07-29T02:37:25;11.15;;;6.88;;
59028;SDS011;45919;51.420;5.454;2022-07-29T02:38:28;11.00;;;7.63;;
59028;SDS011;45919;51.420;5.454;2022-07-29T02:39:51;11.73;;;7.32;;
59028;SDS011;45919;51.420;5.454;2022-07-29T02:40:54;12.77;;;7.38;;
59028;SDS011;45919;51.420;5.454;2022-07-29T02:42:00;11.45;;;7.18;;
59028;SDS011;45919;51.420;5.454;2022-07-29T02:43:05;10.90;;;7.30;;
59028;SDS011;45919;51.420;5.454;2022-07-29T02:44:10;10.73;;;7.80;;
59028;SDS011;45919;51.420;5.454;2022-07-29T02:45:14;11.45;;;7.47;;
59028;SDS011;45919;51.420;5.454;2022-07-29T02:46:17;11.50;;;7.60;;
59028;SDS011;45919;51.420;5.454;2022-07-29T02:48:55;12.13;;;7.18;;
59028;SDS011;45919;51.420;5.454;2022-07-29T02:50:02;9.95;;;7.55;;
59028;SDS011;45919;51.420;5.454;2022-07-29T02:51:13;10.75;;;7.20;;
59028;SDS011;45919;51.420;5.454;2022-07-29T02:53:36;9.18;;;7.10;;
59028;SDS011;45919;51.420;5.454;2022-07-29T02:54:47;8.70;;;6.70;;
59028;SDS011;45919;51.420;5.454;2022-07-29T02:55:58;12.32;;;6.75;;
59028;SDS011;45919;51.420;5.454;2022-07-29T02:57:04;8.93;;;6.65;;
59028;SDS011;45919;51.420;5.454;2022-07-29T02:58:21;10.45;;;7.00;;
59028;SDS011;45919;51.420;5.454;2022-07-29T02:59:30;10.65;;;7.38;;
59028;SDS011;45919;51.420;5.454;2022-07-29T03:00:36;11.65;;;7.28;;
59028;SDS011;45919;51.420;5.454;2022-07-29T03:01:40;10.43;;;7.30;;
59028;SDS011;45919;51.420;5.454;2022-07-29T03:02:45;11.20;;;7.13;;
59028;SDS011;45919;51.420;5.454;2022-07-29T03:03:52;11.40;;;6.80;;
59028;SDS011;45919;51.420;5.454;2022-07-29T03:04:55;9.98;;;7.10;;
59028;SDS011;45919;51.420;5.454;2022-07-29T03:05:59;10.55;;;7.25;;
59028;SDS011;45919;51.420;5.454;2022-07-29T03:07:02;11.93;;;6.65;;
59028;SDS011;45919;51.420;5.454;2022-07-29T03:08:07;12.63;;;6.95;;
59028;SDS011;45919;51.420;5.454;2022-07-29T03:09:11;15.38;;;6.93;;
59028;SDS011;45919;51.420;5.454;2022-07-29T03:10:14;9.68;;;7.00;;
59028;SDS011;45919;51.420;5.454;2022-07-29T03:11:16;10.95;;;6.85;;
59028;SDS011;45919;51.420;5.454;2022-07-29T03:12:19;9.15;;;6.88;;
59028;SDS011;45919;51.420;5.454;2022-07-29T03:13:21;9.32;;;7.03;;
59028;SDS011;45919;51.420;5.454;2022-07-29T03:14:24;12.43;;;7.18;;
59028;SDS011;45919;51.420;5.454;2022-07-29T03:15:27;13.38;;;7.25;;
59028;SDS011;45919;51.420;5.454;2022-07-29T03:16:29;9.68;;;7.15;;
59028;SDS011;45919;51.420;5.454;2022-07-29T03:17:31;10.65;;;6.82;;
59028;SDS011;45919;51.420;5.454;2022-07-29T03:18:33;10.23;;;6.90;;
59028;SDS011;45919;51.420;5.454;2022-07-29T03:19:35;12.57;;;7.70;;
59028;SDS011;45919;51.420;5.454;2022-07-29T03:20:37;10.25;;;6.93;;
59028;SDS011;45919;51.420;5.454;2022-07-29T03:21:39;12.15;;;7.13;;
59028;SDS011;45919;51.420;5.454;2022-07-29T03:22:42;10.55;;;7.07;;
59028;SDS011;45919;51.420;5.454;2022-07-29T03:23:45;9.55;;;6.80;;
59028;SDS011;45919;51.420;5.454;2022-07-29T03:24:46;10.25;;;6.78;;
59028;SDS011;45919;51.420;5.454;2022-07-29T03:25:49;10.90;;;7.32;;
59028;SDS011;45919;51.420;5.454;2022-07-29T03:26:51;8.73;;;7.13;;
59028;SDS011;45919;51.420;5.454;2022-07-29T03:27:52;11.60;;;6.72;;
59028;SDS011;45919;51.420;5.454;2022-07-29T03:28:54;11.38;;;7.05;;
59028;SDS011;45919;51.420;5.454;2022-07-29T03:29:56;12.95;;;7.25;;
59028;SDS011;45919;51.420;5.454;2022-07-29T03:30:57;9.43;;;7.07;;
59028;SDS011;45919;51.420;5.454;2022-07-29T03:31:59;12.15;;;7.85;;
59028;SDS011;45919;51.420;5.454;2022-07-29T03:33:01;11.43;;;7.13;;
59028;SDS011;45919;51.420;5.454;2022-07-29T03:34:03;11.43;;;7.00;;
59028;SDS011;45919;51.420;5.454;2022-07-29T03:35:05;10.00;;;7.28;;
59028;SDS011;45919;51.420;5.454;2022-07-29T03:36:07;9.93;;;6.72;;
59028;SDS011;45919;51.420;5.454;2022-07-29T03:37:08;11.60;;;7.65;;
59028;SDS011;45919;51.420;5.454;2022-07-29T03:38:10;11.70;;;7.40;;
59028;SDS011;45919;51.420;5.454;2022-07-29T03:39:12;10.98;;;7.30;;
59028;SDS011;45919;51.420;5.454;2022-07-29T03:40:22;14.10;;;7.30;;
59028;SDS011;45919;51.420;5.454;2022-07-29T03:41:27;9.35;;;6.65;;
59028;SDS011;45919;51.420;5.454;2022-07-29T03:42:30;11.73;;;7.25;;
59028;SDS011;45919;51.420;5.454;2022-07-29T03:43:35;11.68;;;6.60;;
59028;SDS011;45919;51.420;5.454;2022-07-29T03:44:40;11.40;;;7.28;;
59028;SDS011;45919;51.420;5.454;2022-07-29T03:45:44;12.02;;;6.97;;
59028;SDS011;45919;51.420;5.454;2022-07-29T03:46:49;10.90;;;6.93;;
59028;SDS011;45919;51.420;5.454;2022-07-29T03:47:58;9.82;;;7.30;;
59028;SDS011;45919;51.420;5.454;2022-07-29T03:49:03;11.35;;;7.55;;
59028;SDS011;45919;51.420;5.454;2022-07-29T03:50:06;9.60;;;6.93;;
59028;SDS011;45919;51.420;5.454;2022-07-29T03:51:09;13.90;;;7.03;;
59028;SDS011;45919;51.420;5.454;2022-07-29T03:52:11;12.10;;;7.07;;
59028;SDS011;45919;51.420;5.454;2022-07-29T03:53:13;13.82;;;7.72;;
59028;SDS011;45919;51.420;5.454;2022-07-29T03:54:15;13.65;;;7.78;;
59028;SDS011;45919;51.420;5.454;2022-07-29T03:55:17;11.52;;;7.70;;
59028;SDS011;45919;51.420;5.454;2022-07-29T03:56:20;12.70;;;7.45;;
59028;SDS011;45919;51.420;5.454;2022-07-29T03:57:23;12.25;;;7.68;;
59028;SDS011;45919;51.420;5.454;2022-07-29T03:58:28;14.20;;;7.78;;
59028;SDS011;45919;51.420;5.454;2022-07-29T03:59:33;10.50;;;7.75;;
59028;SDS011;45919;51.420;5.454;2022-07-29T04:00:35;11.63;;;7.97;;
59028;SDS011;45919;51.420;5.454;2022-07-29T04:01:38;11.07;;;7.65;;
59028;SDS011;45919;51.420;5.454;2022-07-29T04:02:42;12.68;;;7.78;;
59028;SDS011;45919;51.420;5.454;2022-07-29T04:03:49;9.60;;;7.53;;
59028;SDS011;45919;51.420;5.454;2022-07-29T04:04:51;12.70;;;7.65;;
59028;SDS011;45919;51.420;5.454;2022-07-29T04:07:02;9.75;;;7.93;;
59028;SDS011;45919;51.420;5.454;2022-07-29T04:08:04;13.02;;;7.82;;
59028;SDS011;45919;51.420;5.454;2022-07-29T04:09:07;11.25;;;7.78;;
59028;SDS011;45919;51.420;5.454;2022-07-29T04:10:09;10.82;;;7.88;;
59028;SDS011;45919;51.420;5.454;2022-07-29T04:11:11;14.30;;;8.20;;
59028;SDS011;45919;51.420;5.454;2022-07-29T04:12:13;13.25;;;8.68;;
59028;SDS011;45919;51.420;5.454;2022-07-29T04:13:14;10.35;;;7.72;;
59028;SDS011;45919;51.420;5.454;2022-07-29T04:14:16;12.10;;;8.32;;
59028;SDS011;45919;51.420;5.454;2022-07-29T04:15:18;12.98;;;8.32;;
59028;SDS011;45919;51.420;5.454;2022-07-29T04:16:20;13.52;;;8.45;;
59028;SDS011;45919;51.420;5.454;2022-07-29T04:17:21;12.35;;;8.48;;
59028;SDS011;45919;51.420;5.454;2022-07-29T04:18:23;11.13;;;7.65;;
59028;SDS011;45919;51.420;5.454;2022-07-29T04:19:25;9.18;;;7.85;;
59028;SDS011;45919;51.420;5.454;2022-07-29T04:20:26;13.30;;;8.73;;
59028;SDS011;45919;51.420;5.454;2022-07-29T04:21:28;11.00;;;8.05;;
59028;SDS011;45919;51.420;5.454;2022-07-29T04:22:29;14.20;;;8.52;;
59028;SDS011;45919;51.420;5.454;2022-07-29T04:23:31;14.15;;;8.10;;
59028;SDS011;45919;51.420;5.454;2022-07-29T04:24:36;13.13;;;8.07;;
59028;SDS011;45919;51.420;5.454;2022-07-29T04:25:38;15.52;;;8.13;;
59028;SDS011;45919;51.420;5.454;2022-07-29T04:26:41;11.85;;;8.10;;
59028;SDS011;45919;51.420;5.454;2022-07-29T04:27:42;9.93;;;7.60;;
59028;SDS011;45919;51.420;5.454;2022-07-29T04:29:01;11.52;;;7.97;;
59028;SDS011;45919;51.420;5.454;2022-07-29T04:30:02;11.23;;;8.10;;
59028;SDS011;45919;51.420;5.454;2022-07-29T04:31:04;12.18;;;7.25;;
59028;SDS011;45919;51.420;5.454;2022-07-29T04:32:06;9.88;;;7.63;;
59028;SDS011;45919;51.420;5.454;2022-07-29T04:33:08;12.13;;;8.50;;
59028;SDS011;45919;51.420;5.454;2022-07-29T04:34:09;11.15;;;8.02;;
59028;SDS011;45919;51.420;5.454;2022-07-29T04:35:11;13.40;;;7.88;;
59028;SDS011;45919;51.420;5.454;2022-07-29T04:36:13;10.77;;;7.60;;
59028;SDS011;45919;51.420;5.454;2022-07-29T04:37:15;10.85;;;7.63;;
59028;SDS011;45919;51.420;5.454;2022-07-29T04:38:16;12.05;;;7.93;;
59028;SDS011;45919;51.420;5.454;2022-07-29T04:39:18;13.30;;;7.90;;
59028;SDS011;45919;51.420;5.454;2022-07-29T04:40:22;14.07;;;8.45;;
59028;SDS011;45919;51.420;5.454;2022-07-29T04:41:24;12.43;;;7.78;;
59028;SDS011;45919;51.420;5.454;2022-07-29T04:42:25;11.25;;;7.75;;
59028;SDS011;45919;51.420;5.454;2022-07-29T04:43:27;12.55;;;7.93;;
59028;SDS011;45919;51.420;5.454;2022-07-29T04:44:29;11.85;;;7.68;;
59028;SDS011;45919;51.420;5.454;2022-07-29T04:45:30;15.25;;;8.18;;
59028;SDS011;45919;51.420;5.454;2022-07-29T04:46:32;10.27;;;7.93;;
59028;SDS011;45919;51.420;5.454;2022-07-29T04:47:34;12.90;;;8.57;;
59028;SDS011;45919;51.420;5.454;2022-07-29T04:48:35;19.42;;;8.65;;
59028;SDS011;45919;51.420;5.454;2022-07-29T04:49:38;12.80;;;8.18;;
59028;SDS011;45919;51.420;5.454;2022-07-29T04:50:40;10.88;;;7.70;;
59028;SDS011;45919;51.420;5.454;2022-07-29T04:51:42;11.30;;;7.60;;
59028;SDS011;45919;51.420;5.454;2022-07-29T04:52:43;12.48;;;7.57;;
59028;SDS011;45919;51.420;5.454;2022-07-29T04:53:45;12.85;;;8.05;;
59028;SDS011;45919;51.420;5.454;2022-07-29T04:54:46;13.65;;;7.65;;
59028;SDS011;45919;51.420;5.454;2022-07-29T04:55:48;10.73;;;7.85;;
59028;SDS011;45919;51.420;5.454;2022-07-29T04:56:50;11.10;;;8.20;;
59028;SDS011;45919;51.420;5.454;2022-07-29T04:57:51;12.20;;;8.00;;
59028;SDS011;45919;51.420;5.454;2022-07-29T04:58:53;15.13;;;8.27;;
59028;SDS011;45919;51.420;5.454;2022-07-29T04:59:55;13.23;;;8.30;;
59028;SDS011;45919;51.420;5.454;2022-07-29T05:00:56;11.65;;;8.00;;
59028;SDS011;45919;51.420;5.454;2022-07-29T05:01:58;14.98;;;8.30;;
59028;SDS011;45919;51.420;5.454;2022-07-29T05:02:59;13.07;;;7.72;;
59028;SDS011;45919;51.420;5.454;2022-07-29T05:04:01;12.02;;;8.20;;
59028;SDS011;45919;51.420;5.454;2022-07-29T05:05:03;11.00;;;8.05;;
59028;SDS011;45919;51.420;5.454;2022-07-29T05:06:05;13.05;;;8.07;;
59028;SDS011;45919;51.420;5.454;2022-07-29T05:07:06;14.43;;;8.75;;
59028;SDS011;45919;51.420;5.454;2022-07-29T05:08:08;11.75;;;7.70;;
59028;SDS011;45919;51.420;5.454;2022-07-29T05:09:09;14.45;;;8.63;;
59028;SDS011;45919;51.420;5.454;2022-07-29T05:10:11;11.43;;;8.68;;
59028;SDS011;45919;51.420;5.454;2022-07-29T05:11:12;12.73;;;8.32;;
59028;SDS011;45919;51.420;5.454;2022-07-29T05:12:17;9.57;;;8.05;;
59028;SDS011;45919;51.420;5.454;2022-07-29T05:13:18;10.93;;;7.88;;
59028;SDS011;45919;51.420;5.454;2022-07-29T05:14:20;10.25;;;7.97;;
59028;SDS011;45919;51.420;5.454;2022-07-29T05:15:21;10.82;;;8.10;;
59028;SDS011;45919;51.420;5.454;2022-07-29T05:16:23;13.05;;;7.95;;
59028;SDS011;45919;51.420;5.454;2022-07-29T05:17:26;12.55;;;8.23;;
59028;SDS011;45919;51.420;5.454;2022-07-29T05:18:27;10.05;;;7.97;;
59028;SDS011;45919;51.420;5.454;2022-07-29T05:19:29;13.65;;;8.50;;
59028;SDS011;45919;51.420;5.454;2022-07-29T05:20:31;12.20;;;8.68;;
59028;SDS011;45919;51.420;5.454;2022-07-29T05:21:34;10.43;;;8.77;;
59028;SDS011;45919;51.420;5.454;2022-07-29T05:22:35;11.55;;;7.70;;
59028;SDS011;45919;51.420;5.454;2022-07-29T05:23:37;13.93;;;8.52;;
59028;SDS011;45919;51.420;5.454;2022-07-29T05:24:38;11.90;;;7.80;;
59028;SDS011;45919;51.420;5.454;2022-07-29T05:25:40;12.68;;;8.52;;
59028;SDS011;45919;51.420;5.454;2022-07-29T05:26:42;12.07;;;8.73;;
59028;SDS011;45919;51.420;5.454;2022-07-29T05:27:43;10.18;;;8.05;;
59028;SDS011;45919;51.420;5.454;2022-07-29T05:28:45;11.20;;;8.50;;
59028;SDS011;45919;51.420;5.454;2022-07-29T05:29:47;12.77;;;8.40;;
59028;SDS011;45919;51.420;5.454;2022-07-29T05:30:49;12.85;;;8.50;;
59028;SDS011;45919;51.420;5.454;2022-07-29T05:31:50;13.23;;;8.65;;
59028;SDS011;45919;51.420;5.454;2022-07-29T05:32:54;14.02;;;8.93;;
59028;SDS011;45919;51.420;5.454;2022-07-29T05:33:55;11.90;;;8.15;;
59028;SDS011;45919;51.420;5.454;2022-07-29T05:34:57;14.27;;;8.63;;
59028;SDS011;45919;51.420;5.454;2022-07-29T05:35:58;9.25;;;8.00;;
59028;SDS011;45919;51.420;5.454;2022-07-29T05:37:00;12.07;;;9.07;;
59028;SDS011;45919;51.420;5.454;2022-07-29T05:38:02;11.35;;;8.73;;
59028;SDS011;45919;51.420;5.454;2022-07-29T05:39:04;12.80;;;8.60;;
59028;SDS011;45919;51.420;5.454;2022-07-29T05:40:06;11.25;;;8.52;;
59028;SDS011;45919;51.420;5.454;2022-07-29T05:41:09;12.13;;;8.65;;
59028;SDS011;45919;51.420;5.454;2022-07-29T05:42:10;11.48;;;8.45;;
59028;SDS011;45919;51.420;5.454;2022-07-29T05:43:12;13.02;;;8.52;;
59028;SDS011;45919;51.420;5.454;2022-07-29T05:44:14;13.02;;;8.32;;
59028;SDS011;45919;51.420;5.454;2022-07-29T05:45:16;12.75;;;8.30;;
59028;SDS011;45919;51.420;5.454;2022-07-29T05:46:18;12.02;;;8.68;;
59028;SDS011;45919;51.420;5.454;2022-07-29T05:47:21;14.10;;;8.88;;
59028;SDS011;45919;51.420;5.454;2022-07-29T05:48:23;11.48;;;8.43;;
59028;SDS011;45919;51.420;5.454;2022-07-29T05:49:25;13.20;;;8.65;;
59028;SDS011;45919;51.420;5.454;2022-07-29T05:50:27;12.95;;;8.80;;
59028;SDS011;45919;51.420;5.454;2022-07-29T05:51:29;12.77;;;9.55;;
59028;SDS011;45919;51.420;5.454;2022-07-29T05:52:31;13.18;;;8.77;;
59028;SDS011;45919;51.420;5.454;2022-07-29T05:53:33;15.98;;;8.88;;
59028;SDS011;45919;51.420;5.454;2022-07-29T05:54:34;13.40;;;8.73;;
59028;SDS011;45919;51.420;5.454;2022-07-29T05:55:36;13.95;;;9.20;;
59028;SDS011;45919;51.420;5.454;2022-07-29T05:56:38;15.18;;;9.23;;
59028;SDS011;45919;51.420;5.454;2022-07-29T05:57:39;13.25;;;9.57;;
59028;SDS011;45919;51.420;5.454;2022-07-29T05:58:41;11.90;;;8.68;;
59028;SDS011;45919;51.420;5.454;2022-07-29T05:59:42;13.32;;;9.30;;
59028;SDS011;45919;51.420;5.454;2022-07-29T06:00:44;12.90;;;9.50;;
59028;SDS011;45919;51.420;5.454;2022-07-29T06:01:46;12.20;;;9.38;;
59028;SDS011;45919;51.420;5.454;2022-07-29T06:02:48;11.98;;;9.32;;
59028;SDS011;45919;51.420;5.454;2022-07-29T06:03:50;14.77;;;9.95;;
59028;SDS011;45919;51.420;5.454;2022-07-29T06:04:51;13.75;;;9.60;;
59028;SDS011;45919;51.420;5.454;2022-07-29T06:05:53;13.23;;;10.05;;
59028;SDS011;45919;51.420;5.454;2022-07-29T06:06:55;17.00;;;9.80;;
59028;SDS011;45919;51.420;5.454;2022-07-29T06:07:56;14.80;;;9.77;;
59028;SDS011;45919;51.420;5.454;2022-07-29T06:08:58;15.40;;;10.15;;
59028;SDS011;45919;51.420;5.454;2022-07-29T06:10:00;12.55;;;9.50;;
59028;SDS011;45919;51.420;5.454;2022-07-29T06:11:02;13.43;;;10.55;;
59028;SDS011;45919;51.420;5.454;2022-07-29T06:12:04;13.40;;;9.65;;
59028;SDS011;45919;51.420;5.454;2022-07-29T06:13:06;13.35;;;9.52;;
59028;SDS011;45919;51.420;5.454;2022-07-29T06:14:07;15.07;;;10.10;;
59028;SDS011;45919;51.420;5.454;2022-07-29T06:15:09;14.18;;;9.88;;
59028;SDS011;45919;51.420;5.454;2022-07-29T06:16:11;13.20;;;9.65;;
59028;SDS011;45919;51.420;5.454;2022-07-29T06:17:12;13.85;;;10.18;;
59028;SDS011;45919;51.420;5.454;2022-07-29T06:18:14;17.42;;;10.50;;
59028;SDS011;45919;51.420;5.454;2022-07-29T06:19:16;14.80;;;10.50;;
59028;SDS011;45919;51.420;5.454;2022-07-29T06:20:17;13.82;;;9.98;;
59028;SDS011;45919;51.420;5.454;2022-07-29T06:21:19;13.38;;;9.88;;
59028;SDS011;45919;51.420;5.454;2022-07-29T06:22:21;15.63;;;9.80;;
59028;SDS011;45919;51.420;5.454;2022-07-29T06:23:23;13.60;;;10.18;;
59028;SDS011;45919;51.420;5.454;2022-07-29T06:24:24;16.95;;;10.60;;
59028;SDS011;45919;51.420;5.454;2022-07-29T06:25:26;14.13;;;9.50;;
59028;SDS011;45919;51.420;5.454;2022-07-29T06:26:31;14.23;;;10.02;;
59028;SDS011;45919;51.420;5.454;2022-07-29T06:27:35;13.70;;;10.45;;
59028;SDS011;45919;51.420;5.454;2022-07-29T06:28:36;14.55;;;10.32;;
59028;SDS011;45919;51.420;5.454;2022-07-29T06:29:38;14.38;;;10.48;;
59028;SDS011;45919;51.420;5.454;2022-07-29T06:30:40;12.43;;;9.68;;
59028;SDS011;45919;51.420;5.454;2022-07-29T06:31:42;18.67;;;10.68;;
59028;SDS011;45919;51.420;5.454;2022-07-29T06:32:43;12.18;;;10.05;;
59028;SDS011;45919;51.420;5.454;2022-07-29T06:33:45;16.02;;;9.93;;